Time;durP1;ratioP1;P1;durP2;ratioP2;P2;SDS_P1;SDS_P2;PMS_P1;PMS_P2;Temp;Humidity;BMP_temperature;BMP_pressure;BME280_temperature;BME280_humidity;BME280_pressure;Samples;Min_cycle;Max_cycle;Signal;HPM_P1;HPM_P2
2022/06/06 00:02:02;;;;;;;11.60;5.30;;;24.90;56.10;;;;;;220078;1268;22571;-59
2022/06/06 00:07:06;;;;;;;9.70;5.30;;;24.90;56.20;;;;;;223775;1265;25352;-62
2022/06/06 00:12:10;;;;;;;8.60;5.20;;;24.90;56.50;;;;;;221017;1265;22704;-60
2022/06/06 00:17:14;;;;;;;9.00;5.10;;;24.90;56.20;;;;;;221218;1265;23988;-63
2022/06/06 00:22:18;;;;;;;10.80;5.40;;;24.90;56.50;;;;;;220771;1265;22646;-61
2022/06/06 00:27:21;;;;;;;10.30;5.20;;;24.90;56.60;;;;;;220972;1265;25229;-61
2022/06/06 00:37:56;;;;;;;7.40;5.00;;;24.90;56.40;;;;;;220770;1265;22696;-60
2022/06/06 00:43:16;;;;;;;8.00;4.80;;;24.90;56.50;;;;;;221064;1265;22570;-62
2022/06/06 00:48:30;;;;;;;8.60;5.10;;;24.90;56.70;;;;;;221218;1267;24414;-62
2022/06/06 00:53:46;;;;;;;8.40;5.70;;;24.90;56.70;;;;;;220864;1265;24319;-60
2022/06/06 00:59:00;;;;;;;8.20;5.10;;;24.90;56.80;;;;;;221566;1265;24133;-62
2022/06/06 01:04:13;;;;;;;8.30;5.10;;;24.90;57.30;;;;;;220822;1265;22534;-58
2022/06/06 01:09:24;;;;;;;9.40;5.40;;;24.90;57.20;;;;;;221128;1265;22578;-59
2022/06/06 01:14:50;;;;;;;10.90;6.40;;;24.90;57.50;;;;;;221883;1265;24052;-61
2022/06/06 01:20:19;;;;;;;8.30;5.20;;;24.90;58.00;;;;;;220949;1265;26442;-62
2022/06/06 01:25:44;;;;;;;9.40;5.70;;;24.90;57.90;;;;;;220934;1265;26530;-65
2022/06/06 01:30:56;;;;;;;7.50;5.20;;;24.90;58.00;;;;;;221094;1265;24216;-60
2022/06/06 01:36:05;;;;;;;9.70;5.90;;;24.90;58.60;;;;;;221138;1265;24256;-64
2022/06/06 01:41:49;;;;;;;8.80;5.60;;;24.90;58.30;;;;;;221168;1265;24267;-62
2022/06/06 01:47:20;;;;;;;8.10;5.60;;;25.00;58.60;;;;;;220999;1265;24212;-62
2022/06/06 01:53:00;;;;;;;7.60;5.30;;;25.00;58.60;;;;;;221052;1265;22529;-62
2022/06/06 01:58:25;;;;;;;8.40;5.50;;;25.00;58.70;;;;;;220956;1265;22542;-61
2022/06/06 02:03:32;;;;;;;9.40;5.60;;;25.00;59.20;;;;;;220982;1265;22534;-63
2022/06/06 02:08:42;;;;;;;9.60;5.80;;;25.10;59.10;;;;;;221181;1265;24424;-65
2022/06/06 02:13:52;;;;;;;7.00;4.80;;;25.10;58.60;;;;;;221217;1265;22719;-61
2022/06/06 02:19:17;;;;;;;8.00;5.30;;;25.10;58.50;;;;;;221120;1265;24430;-64
2022/06/06 02:24:27;;;;;;;8.30;5.00;;;25.10;58.50;;;;;;220929;1265;24284;-61
2022/06/06 02:29:50;;;;;;;6.60;4.40;;;25.10;58.40;;;;;;221012;1265;24363;-60
2022/06/06 02:35:01;;;;;;;7.10;4.60;;;25.10;58.30;;;;;;220967;1268;22675;-61
2022/06/06 02:40:15;;;;;;;8.50;4.90;;;25.00;58.30;;;;;;221153;1265;24234;-64
2022/06/06 02:45:42;;;;;;;6.60;4.50;;;25.00;58.30;;;;;;220926;1265;25235;-61
2022/06/06 02:50:52;;;;;;;8.10;5.00;;;25.00;58.30;;;;;;220922;1265;22522;-61
2022/06/06 02:55:59;;;;;;;7.70;5.10;;;25.00;58.20;;;;;;220632;1265;24277;-62
2022/06/06 03:01:12;;;;;;;6.30;4.20;;;25.00;58.20;;;;;;221035;1265;22528;-60
2022/06/06 03:06:41;;;;;;;6.00;4.30;;;25.00;58.20;;;;;;220922;1265;22534;-60
2022/06/06 03:12:20;;;;;;;6.70;4.50;;;24.90;58.10;;;;;;220762;1265;22678;-60
2022/06/06 03:24:11;;;;;;;5.50;4.00;;;24.90;58.00;;;;;;220858;1265;24247;-62
2022/06/06 03:29:39;;;;;;;6.00;4.30;;;24.90;58.00;;;;;;221126;1265;24407;-60
2022/06/06 03:34:55;;;;;;;7.10;4.20;;;24.90;58.00;;;;;;221010;1268;22544;-62
2022/06/06 03:40:45;;;;;;;6.00;3.80;;;24.90;58.00;;;;;;221227;1265;22543;-60
2022/06/06 03:46:13;;;;;;;6.80;4.30;;;24.90;58.00;;;;;;221048;1265;24291;-65
2022/06/06 03:51:51;;;;;;;6.00;4.00;;;24.80;58.00;;;;;;221092;1265;24278;-61
2022/06/06 03:57:15;;;;;;;5.20;3.80;;;24.80;58.00;;;;;;220985;1265;25445;-63
2022/06/06 04:02:23;;;;;;;8.30;4.80;;;24.80;58.40;;;;;;221300;1265;25346;-61
2022/06/06 04:07:27;;;;;;;5.80;4.10;;;24.80;57.90;;;;;;220969;1265;24363;-61
2022/06/06 04:12:57;;;;;;;7.10;4.40;;;24.80;57.90;;;;;;221043;1264;22558;-63
2022/06/06 04:18:10;;;;;;;5.90;4.10;;;24.80;57.90;;;;;;221172;1265;24267;-62
2022/06/06 04:23:19;;;;;;;6.50;3.90;;;24.80;57.90;;;;;;221054;1264;22566;-62
2022/06/06 04:28:31;;;;;;;6.50;4.00;;;24.80;57.90;;;;;;221096;1265;22543;-61
2022/06/06 04:33:42;;;;;;;4.80;4.00;;;24.80;57.90;;;;;;221166;1265;22603;-61
2022/06/06 04:38:56;;;;;;;7.60;4.30;;;24.80;58.20;;;;;;221176;1265;25239;-63
2022/06/06 04:44:09;;;;;;;5.10;3.60;;;24.80;57.90;;;;;;221153;1265;24405;-62
2022/06/06 04:49:14;;;;;;;4.40;3.20;;;24.80;58.10;;;;;;221104;1265;25232;-61
2022/06/06 04:54:23;;;;;;;5.10;3.90;;;24.80;57.80;;;;;;220916;1264;24378;-63
2022/06/06 04:59:31;;;;;;;4.30;3.40;;;24.80;57.80;;;;;;221085;1265;24298;-61
2022/06/06 05:04:34;;;;;;;5.40;3.40;;;24.80;57.80;;;;;;221118;1265;23728;-61
2022/06/06 05:10:13;;;;;;;5.40;3.70;;;24.80;57.80;;;;;;220575;1267;23926;-62
2022/06/06 05:15:29;;;;;;;5.30;3.70;;;24.80;58.00;;;;;;220507;1267;24270;-62
2022/06/06 05:20:50;;;;;;;5.70;4.20;;;24.80;58.00;;;;;;220986;1264;23136;-62
2022/06/06 05:26:00;;;;;;;6.70;4.00;;;24.80;58.00;;;;;;221076;1265;22514;-61
2022/06/06 05:31:22;;;;;;;6.70;3.90;;;24.80;58.60;;;;;;221193;1265;22522;-62
2022/06/06 05:36:36;;;;;;;5.20;3.70;;;24.90;58.30;;;;;;221038;1265;22684;-62
2022/06/06 05:41:59;;;;;;;7.20;4.10;;;24.90;58.80;;;;;;221070;1265;22540;-61
2022/06/06 05:47:32;;;;;;;4.80;3.30;;;24.90;58.00;;;;;;221237;1265;22537;-62
2022/06/06 05:53:04;;;;;;;6.30;3.80;;;24.90;57.80;;;;;;220419;1265;25240;-62
2022/06/06 05:58:27;;;;;;;6.90;4.30;;;24.90;58.10;;;;;;220911;1265;22688;-62
2022/06/06 06:03:56;;;;;;;7.20;3.80;;;24.90;58.20;;;;;;220497;1265;22545;-60
2022/06/06 06:09:26;;;;;;;7.90;4.20;;;25.00;58.10;;;;;;220804;1265;22528;-61
2022/06/06 06:14:29;;;;;;;6.90;3.50;;;24.90;58.10;;;;;;220502;1264;24218;-63
2022/06/06 06:19:47;;;;;;;6.10;3.60;;;25.00;58.90;;;;;;220776;1265;25229;-63
2022/06/06 06:24:59;;;;;;;9.80;4.00;;;25.00;58.70;;;;;;220984;1265;22551;-62
2022/06/06 06:30:05;;;;;;;7.50;3.30;;;25.10;58.70;;;;;;220637;1265;22536;-62
2022/06/06 06:35:16;;;;;;;9.00;3.60;;;25.10;58.80;;;;;;220765;1265;22550;-62
2022/06/06 06:40:25;;;;;;;8.70;3.30;;;25.20;58.80;;;;;;221095;1265;25228;-61
2022/06/06 06:45:33;;;;;;;;;;;25.20;59.10;;;;;;220970;1264;25285;-60
2022/06/06 06:51:17;;;;;;;7.20;4.10;;;25.30;59.70;;;;;;220591;1265;510256;-62
2022/06/06 06:56:36;;;;;;;10.60;4.60;;;25.30;59.30;;;;;;221238;1265;25512;-60
2022/06/06 07:13:39;;;;;;;11.60;3.70;;;25.40;59.10;;;;;;220978;1265;22692;-62
2022/06/06 07:18:49;;;;;;;9.90;3.80;;;25.40;58.80;;;;;;220870;1267;22617;-61
2022/06/06 07:23:58;;;;;;;14.30;4.70;;;25.40;58.80;;;;;;220936;1267;24375;-57
2022/06/06 07:29:07;;;;;;;16.50;4.90;;;25.40;59.00;;;;;;220487;1265;22521;-54
2022/06/06 07:34:46;;;;;;;13.90;5.10;;;25.40;58.90;;;;;;220430;1265;22537;-59
2022/06/06 07:40:14;;;;;;;12.40;4.90;;;25.30;58.40;;;;;;220497;1265;25520;-61
2022/06/06 07:45:45;;;;;;;13.10;4.90;;;25.20;58.10;;;;;;220266;1267;22703;-60
2022/06/06 07:51:12;;;;;;;7.20;4.60;;;25.20;57.50;;;;;;220690;1265;22579;-61
2022/06/06 07:56:49;;;;;;;14.40;5.40;;;25.10;57.40;;;;;;220935;1265;22543;-64
2022/06/06 08:02:03;;;;;;;11.20;4.80;;;25.10;57.20;;;;;;221038;1265;22528;-57
2022/06/06 08:07:32;;;;;;;14.60;5.60;;;24.90;57.60;;;;;;220893;1265;22528;-60
2022/06/06 08:12:47;;;;;;;17.00;5.80;;;24.90;58.00;;;;;;221007;1265;22726;-61
2022/06/06 08:18:11;;;;;;;11.50;5.30;;;24.80;57.90;;;;;;220568;1265;26799;-59
2022/06/06 08:23:25;;;;;;;8.50;5.50;;;24.80;58.60;;;;;;220860;1265;22708;-61
2022/06/06 08:28:39;;;;;;;9.40;5.80;;;24.80;58.60;;;;;;220703;1265;24298;-59
2022/06/06 08:33:46;;;;;;;8.20;5.60;;;24.80;58.70;;;;;;221121;1265;25356;-58
2022/06/06 08:39:13;;;;;;;8.30;5.80;;;24.90;59.00;;;;;;220932;1265;22568;-58
2022/06/06 08:44:57;;;;;;;9.80;5.90;;;24.80;58.70;;;;;;220531;1267;25411;-58
2022/06/06 08:56:11;;;;;;;11.90;6.00;;;24.70;59.80;;;;;;220480;1265;22544;-58
2022/06/06 09:01:28;;;;;;;9.40;6.10;;;24.70;60.20;;;;;;220912;1265;24236;-59
2022/06/06 09:06:56;;;;;;;8.20;5.10;;;24.60;60.20;;;;;;220449;1265;22560;-58
2022/06/06 09:12:28;;;;;;;8.40;5.60;;;24.60;60.20;;;;;;220573;1265;24420;-57
2022/06/06 09:18:21;;;;;;;7.70;5.30;;;24.70;60.30;;;;;;220460;1265;22554;-58
2022/06/06 09:23:44;;;;;;;8.80;5.30;;;24.70;60.20;;;;;;220576;1266;22783;-57
2022/06/06 09:29:24;;;;;;;8.20;6.30;;;24.70;60.30;;;;;;220927;1265;22684;-54
2022/06/06 09:34:38;;;;;;;7.60;5.00;;;24.80;60.40;;;;;;220851;1265;22818;-56
2022/06/06 09:40:16;;;;;;;6.30;4.70;;;24.80;60.50;;;;;;220789;1265;24219;-59
2022/06/06 09:45:19;;;;;;;8.20;4.90;;;24.70;60.50;;;;;;221085;1265;25305;-56
2022/06/06 09:51:15;;;;;;;8.80;5.10;;;24.50;60.50;;;;;;221081;1265;25169;-57
2022/06/06 10:02:29;;;;;;;5.90;4.60;;;24.50;61.60;;;;;;221093;1265;22528;-57
2022/06/06 10:08:04;;;;;;;5.30;4.40;;;24.50;61.80;;;;;;220807;1265;23939;-56
2022/06/06 10:13:30;;;;;;;9.30;4.40;;;24.50;62.30;;;;;;221156;1265;24300;-58
2022/06/06 10:19:05;;;;;;;7.10;4.70;;;24.50;62.10;;;;;;220756;1265;26485;-58
2022/06/06 10:24:34;;;;;;;5.20;4.60;;;24.60;61.90;;;;;;221317;1265;22611;-55
2022/06/06 10:35:27;;;;;;;5.70;5.00;;;24.60;63.20;;;;;;220536;1267;22528;-57
2022/06/06 10:41:08;;;;;;;8.60;4.90;;;24.70;62.80;;;;;;221259;1265;22560;-56
2022/06/06 10:46:29;;;;;;;5.70;5.10;;;24.60;63.90;;;;;;221215;1264;24246;-51
2022/06/06 10:51:49;;;;;;;7.00;5.40;;;24.70;64.60;;;;;;220810;1265;22728;-59
2022/06/06 10:57:24;;;;;;;7.30;5.00;;;24.70;63.90;;;;;;220619;1265;22559;-58
2022/06/06 11:02:31;;;;;;;7.20;5.30;;;24.70;64.30;;;;;;220836;1265;22551;-59
2022/06/06 11:08:21;;;;;;;6.60;5.00;;;24.70;64.40;;;;;;220874;1265;22537;-58
2022/06/06 11:13:29;;;;;;;5.60;4.60;;;24.70;64.50;;;;;;220981;1265;23896;-59
2022/06/06 11:19:06;;;;;;;6.00;3.90;;;24.70;65.20;;;;;;220961;1267;25312;-58
2022/06/06 11:24:25;;;;;;;7.30;4.00;;;24.80;64.90;;;;;;220887;1265;22516;-58
2022/06/06 11:29:53;;;;;;;8.00;4.10;;;24.80;65.00;;;;;;220688;1265;22543;-60
2022/06/06 11:35:27;;;;;;;4.20;3.20;;;24.80;65.90;;;;;;220902;1265;26141;-58
2022/06/06 11:41:09;;;;;;;6.70;3.30;;;24.60;66.10;;;;;;221225;1265;22534;-58
2022/06/06 11:46:47;;;;;;;3.80;2.60;;;24.50;66.80;;;;;;221019;1265;22524;-59
2022/06/06 11:52:13;;;;;;;2.70;2.20;;;24.50;66.80;;;;;;220691;1267;25234;-58
2022/06/06 11:57:44;;;;;;;4.70;2.50;;;24.50;68.00;;;;;;221002;1267;22549;-59
2022/06/06 12:03:19;;;;;;;4.60;2.50;;;24.50;66.40;;;;;;220521;1267;22528;-58
2022/06/06 12:08:41;;;;;;;5.00;2.40;;;24.40;65.70;;;;;;220778;1265;22527;-59
2022/06/06 12:14:22;;;;;;;5.20;2.00;;;24.30;65.80;;;;;;220998;1265;22853;-60
2022/06/06 12:20:05;;;;;;;4.20;2.00;;;24.30;67.40;;;;;;220571;1267;22547;-58
2022/06/06 12:25:34;;;;;;;6.10;2.60;;;24.10;66.60;;;;;;220549;1267;22735;-59
2022/06/06 12:31:08;;;;;;;10.50;2.70;;;24.10;65.30;;;;;;221016;1264;24339;-55
2022/06/06 12:36:22;;;;;;;6.90;2.50;;;24.10;65.60;;;;;;220831;1264;22561;-55
2022/06/06 12:42:04;;;;;;;3.90;2.00;;;24.10;64.90;;;;;;220831;1267;23048;-58
2022/06/06 12:47:38;;;;;;;5.60;2.00;;;24.10;64.60;;;;;;220749;1265;25431;-59
2022/06/06 12:52:57;;;;;;;11.50;2.60;;;24.10;66.10;;;;;;220865;1268;24310;-60
2022/06/06 12:58:34;;;;;;;8.20;2.70;;;24.20;66.40;;;;;;220923;1265;25282;-59
2022/06/06 13:04:06;;;;;;;10.80;2.50;;;24.20;65.90;;;;;;221014;1265;23884;-57
2022/06/06 13:09:31;;;;;;;7.90;2.60;;;24.30;66.40;;;;;;221176;1265;22542;-56
2022/06/06 13:14:51;;;;;;;5.60;2.40;;;24.30;66.40;;;;;;221193;1265;25566;-58
2022/06/06 13:20:12;;;;;;;;;;;24.20;66.70;;;;;;221026;1264;22592;-58
2022/06/06 13:25:33;;;;;;;6.40;2.60;;;24.20;66.70;;;;;;220973;1265;26685;-59
2022/06/06 13:31:03;;;;;;;11.20;2.80;;;24.20;68.10;;;;;;221268;1265;24392;-59
2022/06/06 13:36:20;;;;;;;6.70;2.90;;;24.20;67.20;;;;;;221280;1265;23181;-56
2022/06/06 13:41:42;;;;;;;6.90;2.90;;;24.10;66.70;;;;;;221312;1265;22564;-59
2022/06/06 13:46:53;;;;;;;7.30;2.90;;;24.10;66.20;;;;;;221029;1265;24398;-60
2022/06/06 13:52:21;;;;;;;7.60;2.60;;;24.10;67.30;;;;;;220994;1265;22742;-55
2022/06/06 13:57:31;;;;;;;3.60;2.40;;;24.10;65.80;;;;;;220989;1265;24236;-58
2022/06/06 14:02:38;;;;;;;4.80;2.60;;;24.10;66.60;;;;;;221293;1265;22516;-57
2022/06/06 14:08:09;;;;;;;5.80;2.80;;;24.10;67.00;;;;;;220918;1265;22641;-57
2022/06/06 14:13:40;;;;;;;5.50;2.90;;;24.10;68.10;;;;;;221124;1265;22555;-57
2022/06/06 14:18:46;;;;;;;6.10;2.90;;;24.20;68.10;;;;;;220997;1265;23003;-56
2022/06/06 14:23:49;;;;;;;6.30;2.70;;;24.20;68.30;;;;;;220633;1265;25361;-56
2022/06/06 14:29:12;;;;;;;5.70;3.30;;;24.20;67.60;;;;;;221111;1265;22523;-57
2022/06/06 14:34:31;;;;;;;6.10;3.40;;;24.20;68.20;;;;;;221052;1265;25384;-59
2022/06/06 14:39:35;;;;;;;5.40;3.50;;;24.40;68.10;;;;;;221066;1265;23064;-61
2022/06/06 14:44:47;;;;;;;6.60;3.80;;;24.50;67.30;;;;;;220771;1265;22519;-60
2022/06/06 14:55:31;;;;;;;7.90;3.10;;;24.50;66.50;;;;;;221355;1265;24214;-59
2022/06/06 15:00:50;;;;;;;5.40;3.60;;;24.60;66.40;;;;;;221068;1265;22525;-61
2022/06/06 15:06:05;;;;;;;4.30;3.20;;;24.60;66.10;;;;;;221154;1265;22583;-58
2022/06/06 15:11:14;;;;;;;3.90;2.90;;;24.70;65.90;;;;;;220843;1265;22610;-57
2022/06/06 15:16:21;;;;;;;5.30;3.20;;;24.70;65.90;;;;;;221033;1265;23902;-57
2022/06/06 15:21:32;;;;;;;4.40;3.40;;;24.70;66.20;;;;;;221342;1265;22561;-63
2022/06/06 15:26:44;;;;;;;4.20;2.80;;;24.60;65.80;;;;;;221059;1265;22991;-60
2022/06/06 15:32:21;;;;;;;4.20;3.00;;;24.70;65.70;;;;;;220812;1270;22865;-59
2022/06/06 15:38:10;;;;;;;4.30;2.90;;;24.70;65.50;;;;;;221047;1265;22540;-60
2022/06/06 15:43:32;;;;;;;3.70;3.20;;;24.70;65.50;;;;;;220865;1265;22559;-58
2022/06/06 15:48:50;;;;;;;4.00;3.10;;;24.70;65.50;;;;;;221245;1265;25617;-58
2022/06/06 15:54:16;;;;;;;4.00;2.80;;;24.70;65.30;;;;;;221375;1265;22685;-59
2022/06/06 15:59:28;;;;;;;4.00;3.50;;;24.80;65.40;;;;;;221272;1265;22543;-59
2022/06/06 16:04:53;;;;;;;4.40;3.20;;;24.70;65.40;;;;;;220945;1268;23175;-59
2022/06/06 16:10:15;;;;;;;5.00;3.10;;;24.80;65.30;;;;;;220852;1269;22541;-58
2022/06/06 16:15:38;;;;;;;4.20;3.00;;;24.80;65.30;;;;;;220885;1265;22567;-60
2022/06/06 16:20:57;;;;;;;4.00;3.20;;;24.80;65.30;;;;;;220807;1265;24192;-59
2022/06/06 16:26:07;;;;;;;10.70;3.50;;;24.80;65.60;;;;;;220961;1268;25374;-59
2022/06/06 16:31:36;;;;;;;9.40;3.50;;;24.90;66.90;;;;;;220723;1267;25299;-58
2022/06/06 16:37:04;;;;;;;6.00;3.40;;;24.90;67.20;;;;;;220335;1267;22534;-59
2022/06/06 16:48:17;;;;;;;7.80;3.40;;;24.90;66.90;;;;;;220896;1265;22544;-59
2022/06/06 16:54:06;;;;;;;9.50;4.00;;;25.00;68.40;;;;;;220713;1265;22692;-58
2022/06/06 16:59:25;;;;;;;7.60;3.80;;;25.10;70.30;;;;;;220626;1265;22552;-57
2022/06/06 17:04:43;;;;;;;6.70;3.80;;;25.10;70.00;;;;;;220917;1265;24382;-61
2022/06/06 17:10:32;;;;;;;7.70;4.40;;;25.10;70.50;;;;;;221172;1265;24287;-59
2022/06/06 17:15:57;;;;;;;10.60;4.20;;;25.10;70.70;;;;;;220905;1265;23894;-58
2022/06/06 17:21:21;;;;;;;6.30;4.40;;;25.10;71.70;;;;;;221383;1265;24290;-60
2022/06/06 17:26:38;;;;;;;5.40;4.30;;;25.10;70.90;;;;;;221095;1265;24656;-60
2022/06/06 17:32:39;;;;;;;5.10;3.70;;;25.20;70.90;;;;;;220635;1265;24220;-61
2022/06/06 17:38:16;;;;;;;10.10;4.90;;;25.20;70.50;;;;;;221202;1265;24243;-61
2022/06/06 17:43:41;;;;;;;15.30;5.80;;;25.20;69.80;;;;;;221131;1265;25450;-59
2022/06/06 17:48:52;;;;;;;10.20;5.20;;;24.80;69.60;;;;;;221088;1265;25232;-59
2022/06/06 17:54:49;;;;;;;8.70;5.00;;;24.50;69.90;;;;;;220778;1265;22525;-60
2022/06/06 18:00:12;;;;;;;10.80;4.90;;;24.20;68.70;;;;;;221153;1265;24418;-60
2022/06/06 18:05:45;;;;;;;10.00;4.80;;;24.10;69.50;;;;;;221026;1268;24287;-59
2022/06/06 18:11:15;;;;;;;6.00;4.10;;;24.00;68.60;;;;;;221001;1265;22819;-57
2022/06/06 18:16:34;;;;;;;12.40;4.60;;;24.00;69.20;;;;;;221046;1265;24892;-59
2022/06/06 18:21:45;;;;;;;9.20;4.20;;;23.90;69.10;;;;;;221211;1265;22543;-60
2022/06/06 18:27:06;;;;;;;6.90;4.50;;;23.90;69.10;;;;;;221028;1265;22605;-58
2022/06/06 18:32:26;;;;;;;6.70;4.00;;;23.80;69.60;;;;;;220811;1267;25358;-58
2022/06/06 18:37:35;;;;;;;7.80;4.10;;;23.80;69.40;;;;;;221108;1265;24222;-59
2022/06/06 18:42:39;;;;;;;8.60;4.20;;;23.70;69.60;;;;;;220499;1265;24405;-59
2022/06/06 18:47:58;;;;;;;4.60;3.70;;;23.60;70.90;;;;;;221064;1265;22604;-63
2022/06/06 18:53:56;;;;;;;5.60;3.80;;;23.60;69.60;;;;;;220774;1265;620136;-57
2022/06/06 19:00:11;;;;;;;9.20;4.40;;;23.50;70.40;;;;;;221109;1265;22558;-58
2022/06/06 19:05:40;;;;;;;4.90;4.10;;;23.50;70.50;;;;;;220570;1268;23103;-57
2022/06/06 19:11:23;;;;;;;5.90;4.00;;;23.30;70.40;;;;;;220197;1272;24309;-58
2022/06/06 19:16:56;;;;;;;5.90;3.50;;;23.30;70.60;;;;;;220170;1271;22785;-59
2022/06/06 19:22:13;;;;;;;5.10;3.00;;;23.40;70.20;;;;;;220169;1268;26917;-59
2022/06/06 19:27:35;;;;;;;6.70;3.60;;;23.60;70.20;;;;;;220359;1268;25286;-57
2022/06/06 19:32:46;;;;;;;5.30;3.90;;;23.60;69.90;;;;;;220623;1268;22623;-59
2022/06/06 19:37:50;;;;;;;4.20;3.40;;;23.60;70.00;;;;;;221250;1265;24246;-60
2022/06/06 19:43:17;;;;;;;5.40;3.00;;;23.60;69.70;;;;;;221223;1265;26728;-59
2022/06/06 19:48:45;;;;;;;7.50;3.30;;;23.70;70.30;;;;;;221062;1265;22588;-59
2022/06/06 19:53:58;;;;;;;4.70;3.30;;;23.90;69.20;;;;;;220898;1265;22623;-58
2022/06/06 19:59:10;;;;;;;7.60;3.30;;;23.90;69.50;;;;;;221039;1265;22567;-61
2022/06/06 20:04:37;;;;;;;7.20;3.20;;;24.00;69.60;;;;;;220905;1265;24654;-60
2022/06/06 20:10:00;;;;;;;8.40;3.60;;;24.00;69.60;;;;;;220712;1265;24366;-58
2022/06/06 20:15:20;;;;;;;6.00;3.20;;;24.10;69.50;;;;;;220782;1267;22522;-58
2022/06/06 20:20:42;;;;;;;5.00;3.20;;;24.10;69.70;;;;;;220847;1265;25490;-60
2022/06/06 20:26:00;;;;;;;4.90;3.30;;;24.10;69.50;;;;;;220913;1265;22610;-59
2022/06/06 20:36:53;;;;;;;6.30;3.60;;;24.10;69.90;;;;;;220691;1265;25248;-60
2022/06/06 20:42:35;;;;;;;4.50;3.70;;;24.10;69.60;;;;;;220754;1265;22734;-61
2022/06/06 20:47:50;;;;;;;5.50;3.90;;;24.10;69.10;;;;;;220726;1265;22567;-59
2022/06/06 20:53:04;;;;;;;9.10;3.50;;;24.10;68.70;;;;;;221168;1265;25464;-54
2022/06/06 20:58:15;;;;;;;3.90;3.20;;;24.20;68.80;;;;;;221185;1265;25245;-59
2022/06/06 21:03:19;;;;;;;8.60;3.80;;;24.10;68.90;;;;;;220876;1268;22547;-60
2022/06/06 21:08:37;;;;;;;5.10;3.00;;;24.20;69.10;;;;;;220799;1265;25523;-59
2022/06/06 21:13:41;;;;;;;7.40;4.00;;;24.20;69.90;;;;;;221059;1268;24309;-62
2022/06/06 21:18:45;;;;;;;11.50;3.80;;;24.20;74.40;;;;;;221011;1265;22665;-59
2022/06/06 21:23:51;;;;;;;7.50;4.40;;;24.30;74.60;;;;;;220995;1265;25236;-60
2022/06/06 21:28:55;;;;;;;6.10;3.60;;;24.30;74.00;;;;;;220904;1265;25520;-59
2022/06/06 21:34:00;;;;;;;5.90;4.20;;;24.30;72.80;;;;;;220948;1265;25414;-58
2022/06/06 21:39:09;;;;;;;7.50;3.80;;;24.30;73.10;;;;;;221058;1265;25395;-60
2022/06/06 21:44:15;;;;;;;6.40;3.80;;;24.30;72.50;;;;;;221009;1265;22547;-58
2022/06/06 21:49:23;;;;;;;8.90;4.00;;;24.30;72.50;;;;;;221078;1265;24310;-60
2022/06/06 21:54:27;;;;;;;6.60;4.30;;;24.30;72.60;;;;;;221115;1265;25231;-60
2022/06/06 21:59:36;;;;;;;8.30;3.70;;;24.30;71.60;;;;;;220880;1265;22533;-59
2022/06/06 22:04:40;;;;;;;5.90;3.80;;;24.30;71.50;;;;;;220796;1265;25207;-57
2022/06/06 22:09:47;;;;;;;6.60;3.60;;;24.30;71.50;;;;;;220797;1265;25240;-60
2022/06/06 22:14:52;;;;;;;8.30;4.10;;;24.30;71.50;;;;;;220811;1265;24295;-59
2022/06/06 22:19:56;;;;;;;7.80;4.00;;;24.30;72.40;;;;;;220742;1265;25672;-59
2022/06/06 22:25:04;;;;;;;7.90;4.20;;;24.30;72.10;;;;;;220768;1265;24195;-58
2022/06/06 22:30:09;;;;;;;10.00;4.20;;;24.30;71.70;;;;;;220955;1265;22543;-57
2022/06/06 22:35:14;;;;;;;16.10;5.00;;;24.30;72.10;;;;;;220731;1265;25401;-59
2022/06/06 22:40:18;;;;;;;11.70;5.10;;;24.40;75.00;;;;;;220865;1265;22544;-57
2022/06/06 22:45:23;;;;;;;11.40;4.30;;;24.40;74.50;;;;;;220711;1265;25509;-59
2022/06/06 22:50:28;;;;;;;9.10;4.50;;;24.40;73.60;;;;;;221132;1265;25348;-60
2022/06/06 22:55:31;;;;;;;6.50;4.40;;;24.40;73.20;;;;;;220726;1265;24056;-60
2022/06/06 23:00:35;;;;;;;11.10;4.20;;;24.40;73.40;;;;;;221002;1265;25496;-59
2022/06/06 23:05:39;;;;;;;7.80;4.10;;;24.30;73.20;;;;;;221174;1265;23013;-60
2022/06/06 23:10:43;;;;;;;7.70;3.40;;;24.30;72.90;;;;;;220858;1264;25352;-58
2022/06/06 23:15:49;;;;;;;8.70;4.40;;;24.30;73.10;;;;;;220642;1265;25314;-58
2022/06/06 23:20:56;;;;;;;6.50;3.60;;;24.30;73.30;;;;;;221034;1265;25500;-58
2022/06/06 23:26:01;;;;;;;9.20;4.30;;;24.30;72.70;;;;;;220677;1266;22547;-56
2022/06/06 23:31:05;;;;;;;7.10;3.90;;;24.30;72.70;;;;;;220970;1265;26787;-59
2022/06/06 23:36:18;;;;;;;8.70;3.30;;;24.30;72.70;;;;;;221082;1265;22567;-60
2022/06/06 23:41:24;;;;;;;5.80;3.80;;;24.30;72.60;;;;;;221074;1265;22548;-59
2022/06/06 23:52:10;;;;;;;5.80;3.70;;;24.30;72.40;;;;;;220946;1265;22528;-58
2022/06/06 23:57:16;;;;;;;5.70;3.70;;;24.30;72.40;;;;;;221004;1265;23601;-62
